Hoppa till innehåll

METAR väder och rapporter - EFHK

Nedan listas information från vald flygplats. Andra METARs finns längre ned på sidan. Kontakta oss om någon saknas eller skriv in egen ICAO-kod.

Coded METAR: 2021/12/07 14:20 EFHK 071420Z 35003KT 9999 FEW042 M17/M19 Q1016 NOSIG

Weather Report @ EFHK

Issued: 7th Dec 2021 at 15:20 CET

Wind: light air from the North (350 degrees) at 3 knots (3 mph, 6 kph, 2 mps, Force 1)
Visibility: 10km or more
Cloud: a few clouds at 4200 feet
Temperature: 1F / -17C
Dewpoint: -2F / -19C
Humidity: 84%
Pressure: 1016 hPa
Weather: no significant change expected

Coded TAF: 2021/12/07 15:42 TAF TAF EFHK 071426Z 0715/0815 33003KT CAVOK

Weather Forecast @ EFHK

Issued: 7th Dec 2021 at 16:42 CET

Valid : 7th Dec 16:00 until 8th Dec 16:00 CET

16:00 CET
Wind: light air from North-Northwest (330 degrees) at 3 knots (3 mph, 6 kph, 2 mps, Force 1)
Weather: good visibility and no low cloud (ceiling and visibility OK)

Internet delivery of weather data is not secure or reliable enough for operational purposes.

NEVER RELY ON THE OUTPUT OF THIS SCRIPT TO MAKE DECISIONS ABOUT ANYTHING IN WHICH THE WEATHER FORECAST AND ITS INTERPRETATION COULD BE AN ISSUE OF SAFETY.

Andra intressanta METARs

Klicka på önskad rubrik nedan för att visa nuvarande väder för den platsen.

Avstånd från stationen: NO 27kmESGG - Göteborg (Landvetter)
Uppdaterad: 2021-12-07 15:20
 Vind från OSO
Vind: OSO 19 km/h
Temperatur: -5°C
Vindavkylning: -12°C
Daggpunkt: -7°C
Luftfuktighet: 86%
Barometer: 1012 hPa
Summering: Light Snow
Moln: Genommulet
Sikt: 10 km
Molninformation: Några få moln 732 m
Genommulet 1128 m
2021/12/07 14:20 ESGG 071420Z 11010KT 9999 -SN FEW024 OVC037 M05/M07 Q1012
Light snow, Genommulet
Light snow
Genommulet
  Visa detaljer för Göteborg (Landvetter)
Avstånd från stationen: N 28kmESGP - Göteborg (Säve)
Uppdaterad: 2021-12-07 15:43
 
unable to load ESGP data RC=404 Not Found
unable to load ESGP data RC=404 Not Found
  Visa detaljer för Göteborg (Säve)
Avstånd från stationen: NO 419kmESSA - Stockholm (Arlanda)
Uppdaterad: 2021-12-07 15:20
 Vind från N
Vind: N 4 km/h
Temperatur: -15°C
Daggpunkt: -16°C
Luftfuktighet: 92%
Barometer: 1017 hPa
Summering: Klart
Sikt: mer än 10 km
2021/12/07 14:20 ESSA 071420Z 36002KT CAVOK M15/M16 Q1017 NOSIG
Klart
Klart
  Visa detaljer för Stockholm (Arlanda)
Avstånd från stationen: ONO 404kmESSB - Stockholm (Bromma)
Uppdaterad: 2021-12-07 15:20
 Vind från calm
Vind: Vindstilla
Temperatur: -12°C
Daggpunkt: -13°C
Luftfuktighet: 92%
Barometer: 1018 hPa
Summering: Klart
Sikt: mer än 10 km
2021/12/07 14:20 ESSB 071420Z 00000KT CAVOK M12/M13 Q1018
Klart
Klart
  Visa detaljer för Stockholm (Bromma)
Avstånd från stationen: ONO 323kmESKN - Stockholm (Skavsta)
Uppdaterad: 2021-12-07 15:20
 Vind från NNO
Vind: NNO 9 km/h
Temperatur: -13°C
Vindavkylning: -18°C
Daggpunkt: -15°C
Luftfuktighet: 85%
Barometer: 1018 hPa
Summering: Klart
Sikt: mer än 10 km
2021/12/07 14:20 ESKN 071420Z 02005KT CAVOK M13/M15 Q1018
Klart
Klart
  Visa detaljer för Stockholm (Skavsta)
Avstånd från stationen: SSO 238kmESMS - Malmö flygplats (Sturup)
Uppdaterad: 2021-12-07 15:20
 Vind från SO
Vind: SO 19 km/h
Temperatur: 1°C
Vindavkylning: -4°C
Daggpunkt: -5°C
Luftfuktighet: 65%
Barometer: 1012 hPa
Moln: Genommulet
Sikt: 10 km
Molninformation: Genommulet 884 m
2021/12/07 14:20 ESMS 071420Z 13010KT 9999 OVC029 01/M05 Q1012
Genommulet
Genommulet
  Visa detaljer för Malmö flygplats (Sturup)
Avstånd från stationen: O 382kmESSV - Visby flygplats
Uppdaterad: 2021-12-07 15:20
 Vind från SO
Vind: SO 6 km/h
Temperatur: -6°C
Daggpunkt: -7°C
Luftfuktighet: 93%
Barometer: 1017 hPa
Moln: Några få moln
Sikt: 10 km
Molninformation: Några få moln 792 m
2021/12/07 14:20 ESSV 071420Z 14003KT 9999 FEW026 M06/M07 Q1017
Några få moln
Några få moln
  Visa detaljer för Visby flygplats
Avstånd från stationen: NNO 92kmESGT - Trollhättan
Uppdaterad: 2021-12-07 15:20
 Vind från SSO
Vind: SSO 15 km/h
Temperatur: -3°C
Vindavkylning: -8°C
Daggpunkt: -6°C
Luftfuktighet: 80%
Barometer: 1014 hPa
Summering: Light Snow
Moln: Övervägande molnigt
Sikt: 10 km
Molninformation: Övervägande molnigt 1341 m
2021/12/07 14:20 ESGT 071420Z 16008KT 120V190 9999 -SN BKN044 M03/M06 Q1014
Light snow, Övervägande molnigt
Light snow
Övervägande molnigt
  Visa detaljer för Trollhättan
Avstånd från stationen: ONO 129kmESGJ - Jönköpings flygplats
Uppdaterad: 2021-12-07 15:20
 Vind från SO
Vind: SO 15 km/h
Temperatur: -5°C
Vindavkylning: -11°C
Daggpunkt: -7°C
Luftfuktighet: 86%
Barometer: 1014 hPa
Summering: Snow Grains
Moln: Övervägande molnigt
Sikt: 10 km
Molninformation: Delvis molnigt 701 m
Övervägande molnigt 1036 m
2021/12/07 14:20 ESGJ 071420Z 13008KT 9999 SG SCT023 BKN034 M05/M07 Q1014
Snow grains, Övervägande molnigt
Snow grains
Övervägande molnigt
  Visa detaljer för Jönköpings flygplats
Avstånd från stationen: NNO 229kmESOK - Karlstad
Uppdaterad: 2021-12-07 15:20
 Vind från NO
Vind: NO 11 km/h
Temperatur: -11°C
Vindavkylning: -17°C
Daggpunkt: -12°C
Luftfuktighet: 92%
Barometer: 1015 hPa
Moln: Övervägande molnigt
Sikt: 10 km
Molninformation: Några få moln 396 m
Övervägande molnigt 1311 m
2021/12/07 14:20 ESOK 071420Z 05006KT 9999 FEW013 BKN043 M11/M12 Q1015
Övervägande molnigt
Övervägande molnigt
  Visa detaljer för Karlstad
Avstånd från stationen: N 643kmESNZ - Östersund (Frösön)
Uppdaterad: 2021-12-07 15:20
 Vind från SO
Vind: SO 26 km/h
Temperatur: -11°C
Vindavkylning: -21°C
Daggpunkt: -15°C
Luftfuktighet: 73%
Barometer: 1011 hPa
Moln: Genommulet
Sikt: 10 km
Molninformation: Genommulet 1036 m
2021/12/07 14:20 ESNZ 071420Z 13014KT 9999 OVC034 M11/M15 Q1011
Genommulet
Genommulet
  Visa detaljer för Östersund (Frösön)
Avstånd från stationen: SSO 216kmEKCH - Köpenhamn (Kastrup)
Uppdaterad: 2021-12-07 09:20
Ej aktuell
 
2021/12/07 08:20

  Visa detaljer för Köpenhamn (Kastrup)
Avstånd från stationen: SV 263kmEKBI - Billund Airport
Uppdaterad: 2021-12-07 02:20
Ej aktuell
 
2021/12/07 01:20

  Visa detaljer för Billund Airport
Avstånd från stationen: N 302kmENGM - Oslo (Gardermoen)
Uppdaterad: 2021-12-07 15:20
 Vind från NNO
Vind: NNO 7 km/h
Temperatur: -11°C
Vindavkylning: -16°C
Daggpunkt: -13°C
Luftfuktighet: 85%
Barometer: 1014 hPa
Summering: Skurar i närheten
Moln: Övervägande molnigt
Sikt: 10 km
Molninformation: Några få moln 183 m
Övervägande molnigt 366 m
2021/12/07 14:20 ENGM 071420Z 02004KT 9999 VCSH FEW006 BKN012 M11/M13 Q1014 NOSIG
Nearby showers, Övervägande molnigt
Nearby showers
Övervägande molnigt
  Visa detaljer för Oslo (Gardermoen)
Avstånd från stationen: NO 540kmEFMA - Mariehamn / Åland
Uppdaterad: 2021-12-07 15:20
 Vind från NNV
Vind: NNV 2 km/h
Temperatur: -14°C
Daggpunkt: -15°C
Luftfuktighet: 92%
Barometer: 1018 hPa
Summering: Klart
Sikt: mer än 10 km
2021/12/07 14:20 EFMA 071420Z AUTO 34001KT CAVOK M14/M15 Q1018
Klart
Klart
  Visa detaljer för Mariehamn / Åland
Avstånd från stationen: S 558kmEDDT - Berlin (Tegel), Germany
Uppdaterad: 2021-12-07 15:43
 
unable to load EDDT data RC=404 Not Found
unable to load EDDT data RC=404 Not Found
  Visa detaljer för Berlin (Tegel), Germany
Avstånd från stationen: SV 737kmEHAM - Amsterdam (Schiphol)
Uppdaterad: 2021-12-07 15:25
 Vind från SO
Vind: SO 22 km/h
Temperatur: 5°C
Vindavkylning: 1°C
Daggpunkt: 2°C
Luftfuktighet: 81%
Barometer: 1003 hPa
Summering: Klart
Sikt: mer än 10 km
2021/12/07 14:25 EHAM 071425Z 14012KT CAVOK 05/02 Q1003 NOSIG
Klart
Klart
  Visa detaljer för Amsterdam (Schiphol)
Avstånd från stationen: ONO 808kmEFHK - Helsingfors (Vantaa)
Uppdaterad: 2021-12-07 15:20
 Vind från N
Vind: N 6 km/h
Temperatur: -17°C
Daggpunkt: -19°C
Luftfuktighet: 85%
Barometer: 1016 hPa
Moln: Några få moln
Sikt: 10 km
Molninformation: Några få moln 1280 m
2021/12/07 14:20 EFHK 071420Z 35003KT 9999 FEW042 M17/M19 Q1016 NOSIG
Några få moln
Några få moln
  Visa detaljer för Helsingfors (Vantaa)
Avstånd från stationen: SSV 537kmEDDW - Bremen
Uppdaterad: 2021-12-07 15:20
 Vind från SSO
Vind: SSO 13 km/h
Temperatur: 4°C
Vindavkylning: 1°C
Daggpunkt: 3°C
Luftfuktighet: 93%
Barometer: 1008 hPa
Moln: Övervägande molnigt
Sikt: 8 km
Molninformation: Övervägande molnigt 305 m
2021/12/07 14:20 EDDW 071420Z 16007KT 8000 BKN010 04/03 Q1008 TEMPO BKN009
Övervägande molnigt
Övervägande molnigt
  Visa detaljer för Bremen
Avstånd från stationen: SSV 861kmEDDF - Frankfurt am Main
Uppdaterad: 2021-12-07 15:20
 Vind från SSV
Vind: SSV 15 km/h
Temperatur: 6°C
Vindavkylning: 3°C
Daggpunkt: 0°C
Luftfuktighet: 66%
Barometer: 1011 hPa
Moln: Övervägande molnigt
Sikt: 10 km
Molninformation: Några få moln 792 m
Övervägande molnigt 1067 m
2021/12/07 14:20 EDDF 071420Z 21008KT 180V240 9999 FEW026 BKN035 06/M00 Q1011 NOSIG
Övervägande molnigt
Övervägande molnigt
  Visa detaljer för Frankfurt am Main
Avstånd från stationen: SV 880kmEBBR - Bryssel international
Uppdaterad: 2021-12-07 15:20
 Vind från SSO
Vind: SSO 26 km/h
Temperatur: 5°C
Vindavkylning: 1°C
Daggpunkt: 2°C
Luftfuktighet: 81%
Barometer: 1004 hPa
Moln: Några få moln
Sikt: 10 km
Molninformation: Några få moln 366 m
2021/12/07 14:20 EBBR 071420Z 16014KT 9999 FEW012 05/02 Q1004 NOSIG
Några få moln
Några få moln
  Visa detaljer för Bryssel international
Avstånd från stationen: SV 738kmEHAM - Amsterdam (Schiphol)
Uppdaterad: 2021-12-07 15:25
 Vind från SO
Vind: SO 22 km/h
Temperatur: 5°C
Vindavkylning: 1°C
Daggpunkt: 2°C
Luftfuktighet: 81%
Barometer: 1003 hPa
Summering: Klart
Sikt: mer än 10 km
2021/12/07 14:25 EHAM 071425Z 14012KT CAVOK 05/02 Q1003 NOSIG
Klart
Klart
  Visa detaljer för Amsterdam (Schiphol)
Avstånd från stationen: SV 1044kmEGLL - London (Heathrow)
Uppdaterad: 2021-12-07 13:50
Ej aktuell
 Vind från SSO
Vind: SSO 26 km/h
Temperatur: 7°C
Vindavkylning: 3°C
Daggpunkt: 6°C
Luftfuktighet: 93%
Barometer: 993 hPa
Summering: Lätt regn
Moln: Genommulet
Sikt: 10 km
Molninformation: Genommulet 335 m
2021/12/07 12:50 EGLL 071250Z AUTO 15014KT 9999 -RA OVC011 07/06 Q0993 TEMPO 16020G30KT
Lätt regn, Genommulet
Lätt regn
Genommulet
  Visa detaljer för London (Heathrow)
Avstånd från stationen: SV 1132kmLFPG - Paris (Charles de Gaulle)
Uppdaterad: 2021-12-07 15:00
 Vind från SSO
Vind: SSO 26 km/h
Temperatur: 7°C
Vindavkylning: 3°C
Daggpunkt: 4°C
Luftfuktighet: 81%
Barometer: 1003 hPa
Moln: Övervägande molnigt
Sikt: 10 km
Molninformation: Övervägande molnigt 396 m
Övervägande molnigt 701 m
2021/12/07 14:00 LFPG 071400Z 16014KT 120V180 9999 BKN013 BKN023 07/04 Q1003 BECMG BKN020
Övervägande molnigt
Övervägande molnigt
  Visa detaljer för Paris (Charles de Gaulle)
Avstånd från stationen: SSV 1142kmLSZH - Zürich Airport
Uppdaterad: 2021-12-07 15:20
 Vind från SO
Vind: SO 9 km/h
Temperatur: 5°C
Vindavkylning: 3°C
Daggpunkt: 0°C
Luftfuktighet: 70%
Barometer: 1011 hPa
Moln: Några få moln
Sikt: 10 km
Molninformation: Några få moln 762 m
2021/12/07 14:20 LSZH 071420Z 13005KT 9999 FEW025 05/00 Q1011 NOSIG
Några få moln
Några få moln
  Visa detaljer för Zürich Airport
Avstånd från stationen: S 1749kmLIRF - Rome Airport (Fiumicino - Leonardo da Vinci)
Uppdaterad: 2021-12-07 15:20
 Vind från NNV
Vind: NNV 17 km/h
Temperatur: 12°C
Daggpunkt: 1°C
Luftfuktighet: 47%
Barometer: 1012 hPa
Moln: Några få moln
Sikt: 10 km
Molninformation: Några få moln 1524 m
2021/12/07 14:20 LIRF 071420Z 33009KT 9999 FEW050 12/01 Q1012 NOSIG
Några få moln
Några få moln
  Visa detaljer för Rome Airport (Fiumicino - Leonardo da Vinci)
Avstånd från stationen: SO 2679kmLTAI - Antalya
Uppdaterad: 2021-12-07 14:50
 Vind från S
Vind: S 33 km/h
Temperatur: 18°C
Daggpunkt: 12°C
Luftfuktighet: 68%
Barometer: 1003 hPa
Moln: Övervägande molnigt
Sikt: 10 km
Molninformation: Några få moln 610 m
Övervägande molnigt 914 m
2021/12/07 13:50 LTAI 071350Z 18018KT 9999 FEW020CB BKN030 18/12 Q1003 RETSRA BECMG 15028G45KT RMK RWY18C 17020KT RWY36R 17019KT 140V200 RWY18L 18018G28KT
Övervägande molnigt
Övervägande molnigt
  Visa detaljer för Antalya
Avstånd från stationen: VSV 6074kmKJFK - New Your (JFK)
Uppdaterad: 2021-12-07 13:51
Ej aktuell
 Vind från VSV
Vind: VSV 26 km/h
Temperatur: 3°C
Vindavkylning: -2°C
Daggpunkt: -5°C
Luftfuktighet: 56%
Barometer: 1021.7 hPa
Moln: Övervägande molnigt
Sikt: 16 km
Molninformation: Några få moln 1128 m
Delvis molnigt 5791 m
Övervägande molnigt 7925 m
2021/12/07 12:51 KJFK 071251Z 25014KT 10SM FEW037 SCT190 BKN260 03/M05 A3017 RMK AO2 SLP216 T00331050
Övervägande molnigt
Övervägande molnigt
  Visa detaljer för New Your (JFK)
Avstånd från stationen: VSV 8848kmKLAX - Los Angeles International Airport
Uppdaterad: 2021-12-07 14:53
 Vind från ONO
Vind: ONO 11 km/h
Temperatur: 14°C
Daggpunkt: 11°C
Luftfuktighet: 82%
Barometer: 1014.6 hPa
Summering: Lätt regn
Moln: Genommulet
Sikt: 13 km
Molninformation: Delvis molnigt 975 m
Övervägande molnigt 2743 m
Genommulet 3353 m
2021/12/07 13:53 KLAX 071353Z 07006KT 8SM -RA SCT032 BKN090 OVC110 14/11 A2996 RMK AO2 SLP145 P0001 T01440111
Lätt regn, Genommulet
Lätt regn
Genommulet
  Visa detaljer för Los Angeles International Airport
Avstånd från stationen: SO 4968kmOMDB - Dubai International Airport
Uppdaterad: 2021-12-07 14:00
Ej aktuell
 Vind från N
Vind: N 19 km/h
Temperatur: 25°C
Daggpunkt: 16°C
Luftfuktighet: 57%
Barometer: 1017 hPa
Moln: Några få moln
Sikt: 10 km
Molninformation: Några få moln 1219 m
2021/12/07 13:00 OMDB 071300Z 35010KT 9999 FEW040 25/16 Q1017 NOSIG
Några få moln
Några få moln
  Visa detaljer för Dubai International Airport
Avstånd från stationen: OSO 8570kmRJTT - Tokyo International Airport
Uppdaterad: 2021-12-07 15:00
 Vind från N
Vind: N 37 km/h
Temperatur: 12°C
Daggpunkt: 10°C
Luftfuktighet: 88%
Barometer: 1015 hPa
Summering: Lätt regn, Showers
Moln: Övervägande molnigt
Sikt: 10 km
Molninformation: Några få moln 305 m
Delvis molnigt 396 m
Övervägande molnigt 1829 m
2021/12/07 14:00 RJTT 071400Z 35020KT 9999 -SHRA FEW010 SCT013 BKN060 12/10 Q1015 TEMPO 35024G34KT 4000 RA BR FEW005 BKN008
Lätt regn, Showers, Övervägande molnigt
Lätt regn
Showers
Övervägande molnigt
  Visa detaljer för Tokyo International Airport
Avstånd från stationen: OSO 7125kmZBAA - Peking (Beijing Capital)
Uppdaterad: 2021-12-07 15:00
 Vind från N
Vind: N 4 km/h
Temperatur: -3°C
Daggpunkt: -6°C
Luftfuktighet: 80%
Barometer: 1033 hPa
Summering: Klart
Sikt: mer än 10 km
2021/12/07 14:00 ZBAA 071400Z 36001MPS CAVOK M03/M06 Q1033 NOSIG
Klart
Klart
  Visa detaljer för Peking (Beijing Capital)
VÄDER KURIOSA -  LightningThe chances of being hit by lightning is 1:28,500.